Stolt Greenshank — 2GFD9 — position and weather

sailwx.info

Track history (hours):
 
Tides and Currents Weather Stations Pressure Air Temp Water Temp Dewpoint Dewpoint Depression Visibility Wind Speed Wind Dir Waves Ship Positions

Stolt Greenshank

Last reported at 2018-Jun-25 03:56 UTC. Time now 2018-Jun-25 04:24 UTC.
Position N 53°17' W 002°52'.

Length 90 m; draft 5.3 m.

Type: Tanker. MMSI: 235096859.

Date/timePositionNaut miles runAvg speedWind from/ knotsBaromVisibWave heightAir tempDewpointWater temp
2018-Jun-25 03:56N 53°17' W 002°52'0 0.0
2018-Jun-25 03:02N 53°17' W 002°52'0 0.0
2018-Jun-25 02:56N 53°17' W 002°52'0 0.0
2018-Jun-25 02:26N 53°17' W 002°52'0 0.0
2018-Jun-25 01:56N 53°17' W 002°52'0 0.0
2018-Jun-25 01:26N 53°17' W 002°52'0 0.0
2018-Jun-25 00:59N 53°17' W 002°52'0 0.0
2018-Jun-25 00:26N 53°17' W 002°52'0 0.0
2018-Jun-24 23:59N 53°17' W 002°52'0 0.0
2018-Jun-24 23:17N 53°17' W 002°52'0 0.0
2018-Jun-24 22:59N 53°17' W 002°52'0 0.0
2018-Jun-24 22:29N 53°17' W 002°52'0 0.0
2018-Jun-24 21:47N 53°17' W 002°52'0 0.0
2018-Jun-24 21:26N 53°17' W 002°52'0 0.0
2018-Jun-24 20:59N 53°17' W 002°52'0 0.0
2018-Jun-24 20:23N 53°17' W 002°52'0 0.0
2018-Jun-24 19:47N 53°17' W 002°52'0 0.0
2018-Jun-24 17:53N 53°17' W 002°52'0 0.0
2018-Jun-24 17:20N 53°17' W 002°52'0 0.0
2018-Jun-24 16:56N 53°17' W 002°52'0 0.0
2018-Jun-24 16:26N 53°17' W 002°52'0 0.0
2018-Jun-24 15:50N 53°17' W 002°52'0 0.0
2018-Jun-24 15:26N 53°17' W 002°52'0 0.0
2018-Jun-24 14:59N 53°17' W 002°52'0 0.0
2018-Jun-24 14:26N 53°17' W 002°52'0 0.0
2018-Jun-24 13:59N 53°17' W 002°52'0 0.0
2018-Jun-24 13:29N 53°17' W 002°52'0 0.0
2018-Jun-24 12:59N 53°17' W 002°52'0 0.0
2018-Jun-24 12:26N 53°17' W 002°52'0 0.0
2018-Jun-24 12:00N 53°17' W 002°52'0 0.3
2018-Jun-24 11:30N 53°17' W 002°52'1 1.1
2018-Jun-24 11:00N 53°17' W 002°51'0 0.0
2018-Jun-24 10:30N 53°17' W 002°51'0 0.0
2018-Jun-24 07:28N 53°17' W 002°51'0 0.0
2018-Jun-24 06:58N 53°17' W 002°51'0 0.0
2018-Jun-24 06:28N 53°17' W 002°51'0 0.0
2018-Jun-24 05:40N 53°17' W 002°51'0 0.0
2018-Jun-24 05:28N 53°17' W 002°51'0 0.0
2018-Jun-24 04:58N 53°17' W 002°51'0 0.0
2018-Jun-24 04:25N 53°17' W 002°51'0 0.0
2018-Jun-24 03:58N 53°17' W 002°51'0 0.0
2018-Jun-24 03:28N 53°17' W 002°51'0 0.0
2018-Jun-24 02:58N 53°17' W 002°51'0 0.0
2018-Jun-24 02:28N 53°17' W 002°51'0 0.0
2018-Jun-24 01:58N 53°17' W 002°51'0 0.0
2018-Jun-24 01:28N 53°17' W 002°51'0 0.0
2018-Jun-24 00:52N 53°17' W 002°51'0 0.0
2018-Jun-24 00:22N 53°17' W 002°51'0 0.0
2018-Jun-23 23:52N 53°17' W 002°51'0 0.0
2018-Jun-23 23:28N 53°17' W 002°51'0 0.0
2018-Jun-23 22:46N 53°17' W 002°51'0 0.0
2018-Jun-23 22:28N 53°17' W 002°51'0 0.0
2018-Jun-23 21:58N 53°17' W 002°51'0 0.0
2018-Jun-23 21:29N 53°17' W 002°51'0 0.0
2018-Jun-23 21:00N 53°17' W 002°51'2 4.1
2018-Jun-23 20:30N 53°18' W 002°54'2 4.9
2018-Jun-23 20:01N 53°19' W 002°57'1 2.3
2018-Jun-23 19:30N 53°20' W 002°58'2 3.3
2018-Jun-23 19:00N 53°22' W 002°58'1 2.7
2018-Jun-23 18:30N 53°23' W 002°60'2 3.0
2018-Jun-23 18:00N 53°24' W 003°01'0 0.0
2018-Jun-23 17:30N 53°24' W 003°01'0 0.0
2018-Jun-23 17:00N 53°24' W 003°01'0 0.6
2018-Jun-23 16:30N 53°24' W 003°02'1 1.7
2018-Jun-23 16:00N 53°24' W 003°03'0 0.0
2018-Jun-23 15:30N 53°24' W 003°03'0 0.0
2018-Jun-23 14:59N 53°24' W 003°03'0 0.0
2018-Jun-23 14:29N 53°24' W 003°03'0 0.0
2018-Jun-23 13:59N 53°24' W 003°03'0 0.0
2018-Jun-23 13:29N 53°24' W 003°03'0 0.0
2018-Jun-23 12:59N 53°24' W 003°03'0 0.0
2018-Jun-23 12:29N 53°24' W 003°03'0 0.0
2018-Jun-23 11:59N 53°24' W 003°03'0 0.0
2018-Jun-23 11:29N 53°24' W 003°03'0 0.0
2018-Jun-23 10:56N 53°24' W 003°03'0 0.0
2018-Jun-23 10:29N 53°24' W 003°03'0 0.0
2018-Jun-23 09:59N 53°24' W 003°03'0 0.0
2018-Jun-23 09:29N 53°24' W 003°03'1 1.0
2018-Jun-23 09:00N 53°24' W 003°02'1 1.4
2018-Jun-23 08:30N 53°24' W 003°01'0 0.0
2018-Jun-23 08:00N 53°24' W 003°01'0 0.0
2018-Jun-23 07:30N 53°24' W 003°01'0 0.0
2018-Jun-23 07:00N 53°24' W 003°01'0 0.8
2018-Jun-23 06:30N 53°24' W 003°01'4 8.3
2018-Jun-23 06:00N 53°20' W 002°58'1 1.5
2018-Jun-23 05:10N 53°19' W 002°57'0 0.1
2018-Jun-23 04:43N 53°19' W 002°57'0 0.0
2018-Jun-23 04:07N 53°19' W 002°57'0 0.0
2018-Jun-23 03:49N 53°19' W 002°57'0 0.0
2018-Jun-23 03:19N 53°19' W 002°57'0 0.0
2018-Jun-23 02:13N 53°19' W 002°57'0 0.0
2018-Jun-23 02:01N 53°19' W 002°57'0 0.0
2018-Jun-22 23:52N 53°19' W 002°57'0 0.0
2018-Jun-22 22:43N 53°19' W 002°57'0 0.0
2018-Jun-22 22:13N 53°19' W 002°57'0 0.0
2018-Jun-22 22:01N 53°19' W 002°57'0 0.0
2018-Jun-22 21:31N 53°19' W 002°57'0 0.0
2018-Jun-22 20:55N 53°19' W 002°57'0 0.0
2018-Jun-22 20:07N 53°19' W 002°57'0 0.0
2018-Jun-22 19:54N 53°19' W 002°57'0 0.0
2018-Jun-22 18:12N 53°19' W 002°57'0 0.0
2018-Jun-22 17:43N 53°19' W 002°57'0 0.0
2018-Jun-22 17:30N 53°19' W 002°57'0 0.0
2018-Jun-22 16:52N 53°19' W 002°57'0 0.0
2018-Jun-22 15:31N 53°19' W 002°57'0 0.0
2018-Jun-22 11:54N 53°19' W 002°57'0 0.0
2018-Jun-22 10:54N 53°19' W 002°57'0 0.0
2018-Jun-22 10:30N 53°19' W 002°57'0 0.0
2018-Jun-22 10:00N 53°19' W 002°57'0 0.0
2018-Jun-22 09:31N 53°19' W 002°57'0 0.0
2018-Jun-22 09:00N 53°19' W 002°57'0 0.0
2018-Jun-22 08:31N 53°19' W 002°57'0 0.0
2018-Jun-22 08:00N 53°19' W 002°57'0 0.0
2018-Jun-22 07:31N 53°19' W 002°57'0 0.4
2018-Jun-22 07:00N 53°19' W 002°57'0 0.3
2018-Jun-22 06:30N 53°20' W 002°57'3 5.9
2018-Jun-22 06:00N 53°22' W 002°59'511.0
2018-Jun-22 05:30N 53°27' W 003°03'611.8
2018-Jun-22 05:00N 53°32' W 003°09'510.1
2018-Jun-22 04:30N 53°31' W 003°17'4 7.7
2018-Jun-22 04:00N 53°31' W 003°24'4 7.6
2018-Jun-22 03:31N 53°31' W 003°30'4 6.9
2018-Jun-22 03:00N 53°31' W 003°36'5 9.6
2018-Jun-22 02:30N 53°31' W 003°44'205 6.8
2018-Jun-20 20:21N 50°06' W 003°41'1612.7
2018-Jun-20 19:04N 50°10' W 003°17'112.5
2018-Jun-20 19:00N 50°10' W 003°16'712.7
2018-Jun-20 18:29N 50°12' W 003°06'612.6
2018-Jun-20 17:58N 50°13' W 002°56'13011.0
2018-Jun-20 06:05N 50°35' E 000°25'312.1
2018-Jun-20 05:51N 50°36' E 000°30'410.9
2018-Jun-20 05:31N 50°38' E 000°34'611.2
2018-Jun-20 05:01N 50°42' E 000°41'510.8
2018-Jun-20 04:31N 50°45' E 000°48'3110.6
2018-Jun-20 01:37N 51°04' E 001°26'212.9
2018-Jun-20 01:30N 51°05' E 001°28'713.9
2018-Jun-20 01:00N 51°09' E 001°37'713.6
2018-Jun-20 00:29N 51°14' E 001°45'613.4
2018-Jun-20 00:00N 51°20' E 001°50'612.8
2018-Jun-19 23:30N 51°25' E 001°55'612.0
2018-Jun-19 22:58N 51°30' E 002°01'1011.5
2018-Jun-19 22:07N 51°37' E 002°12'111.1
2018-Jun-19 22:00N 51°38' E 002°14'53 9.8
2018-Jun-19 16:37N 52°03' E 003°29'311.4
2018-Jun-19 16:23N 52°03' E 003°33'511.7
2018-Jun-19 15:59N 52°04' E 003°41'612.1
2018-Jun-19 15:30N 52°03' E 003°50'511.0
2018-Jun-19 15:00N 52°02' E 003°59'612.6
2018-Jun-19 14:30N 51°58' E 004°07'612.5
2018-Jun-19 14:00N 51°55' E 004°15'3 5.2
2018-Jun-19 13:29N 51°53' E 004°19'0 0.0
2018-Jun-19 12:59N 51°53' E 004°19'0 0.0
2018-Jun-19 12:23N 51°53' E 004°19'0 0.0
2018-Jun-19 11:59N 51°53' E 004°19'0 0.0
2018-Jun-19 11:29N 51°53' E 004°19'0 0.0
2018-Jun-19 10:53N 51°53' E 004°19'0 0.0
2018-Jun-19 10:23N 51°53' E 004°19'0 0.0
2018-Jun-19 09:59N 51°53' E 004°19'0 0.0
2018-Jun-19 09:23N 51°53' E 004°19'0 0.0
2018-Jun-19 08:59N 51°53' E 004°19'0 0.0
2018-Jun-19 08:29N 51°53' E 004°19'0 0.0
2018-Jun-19 07:59N 51°53' E 004°19'0 0.0
2018-Jun-19 07:23N 51°53' E 004°19'0 0.0
2018-Jun-19 06:59N 51°53' E 004°19'0 0.0
2018-Jun-19 06:29N 51°53' E 004°19'0 0.0
2018-Jun-19 05:59N 51°53' E 004°19'0 0.0
2018-Jun-19 05:29N 51°53' E 004°19'0 0.0
2018-Jun-19 04:59N 51°53' E 004°19'0 0.0
2018-Jun-19 04:29N 51°53' E 004°19'0 0.0
2018-Jun-19 03:53N 51°53' E 004°19'0 0.0
2018-Jun-19 03:29N 51°53' E 004°19'0 0.0
2018-Jun-19 02:59N 51°53' E 004°19'0 0.0
2018-Jun-19 02:23N 51°53' E 004°19'0 0.0
2018-Jun-19 01:59N 51°53' E 004°19'0 0.0
2018-Jun-19 01:23N 51°53' E 004°19'0 0.0
2018-Jun-19 00:59N 51°53' E 004°19'0 0.0
2018-Jun-19 00:29N 51°53' E 004°19'0 0.0
2018-Jun-18 23:47N 51°53' E 004°19'0 0.0
2018-Jun-18 23:29N 51°53' E 004°19'0 0.0
2018-Jun-18 22:53N 51°53' E 004°19'0 0.0
2018-Jun-18 22:29N 51°53' E 004°19'0 0.0
2018-Jun-18 21:59N 51°53' E 004°19'0 0.0
2018-Jun-18 21:23N 51°53' E 004°19'0 0.0
2018-Jun-18 20:57N 51°53' E 004°19'0 0.0
2018-Jun-18 20:30N 51°53' E 004°19'0 0.0
2018-Jun-18 20:00N 51°53' E 004°19'1 1.2
2018-Jun-18 19:30N 51°53' E 004°18'0 0.7
2018-Jun-18 19:00N 51°53' E 004°18'0 0.0
2018-Jun-18 11:22N 51°53' E 004°18'0 0.0
2018-Jun-18 10:46N 51°53' E 004°18'0 0.0
2018-Jun-18 10:16N 51°53' E 004°18'0 0.0
2018-Jun-18 08:10N 51°53' E 004°18'0 0.0
2018-Jun-18 07:52N 51°53' E 004°18'0 0.0
2018-Jun-18 00:58N 51°53' E 004°18'0 0.0
2018-Jun-17 22:10N 51°53' E 004°18'0 0.0
2018-Jun-17 21:46N 51°53' E 004°18'0 0.0
2018-Jun-17 21:16N 51°53' E 004°18'0 0.0
2018-Jun-17 20:40N 51°53' E 004°18'0 0.0
2018-Jun-17 19:16N 51°53' E 004°18'0 0.0
2018-Jun-17 17:16N 51°53' E 004°18'0 0.0
2018-Jun-17 16:52N 51°53' E 004°18'0 0.0
2018-Jun-17 16:22N 51°53' E 004°18'0 0.0
2018-Jun-17 14:46N 51°53' E 004°18'0 0.0
2018-Jun-17 14:10N 51°53' E 004°18'0 0.0
2018-Jun-17 13:58N 51°53' E 004°18'0 0.0
2018-Jun-17 08:52N 51°53' E 004°18'  
2018-Jun-15 04:29N 51°53' E 004°18'1 1.4
2018-Jun-15 04:00N 51°54' E 004°18'  
Track history (hours):
 
Tides and Currents Weather Stations Pressure Air Temp Water Temp Dewpoint Dewpoint Depression Visibility Wind Speed Wind Dir Waves Ship Positions

Stolt Greenshank

Last reported at 2018-Jun-25 03:56 UTC. Time now 2018-Jun-25 04:24 UTC.
Position N 53°17' W 002°52'.

Length 90 m; draft 5.3 m.

Type: Tanker. MMSI: 235096859.

Date/timePositionNaut miles runAvg speedWind from/ knotsBaromVisibWave heightAir tempDewpointWater temp
2018-Jun-25 03:56N 53°17' W 002°52'0 0.0
2018-Jun-25 03:02N 53°17' W 002°52'0 0.0
2018-Jun-25 02:56N 53°17' W 002°52'0 0.0
2018-Jun-25 02:26N 53°17' W 002°52'0 0.0
2018-Jun-25 01:56N 53°17' W 002°52'0 0.0
2018-Jun-25 01:26N 53°17' W 002°52'0 0.0
2018-Jun-25 00:59N 53°17' W 002°52'0 0.0
2018-Jun-25 00:26N 53°17' W 002°52'0 0.0
2018-Jun-24 23:59N 53°17' W 002°52'0 0.0
2018-Jun-24 23:17N 53°17' W 002°52'0 0.0
2018-Jun-24 22:59N 53°17' W 002°52'0 0.0
2018-Jun-24 22:29N 53°17' W 002°52'0 0.0
2018-Jun-24 21:47N 53°17' W 002°52'0 0.0
2018-Jun-24 21:26N 53°17' W 002°52'0 0.0
2018-Jun-24 20:59N 53°17' W 002°52'0 0.0
2018-Jun-24 20:23N 53°17' W 002°52'0 0.0
2018-Jun-24 19:47N 53°17' W 002°52'0 0.0
2018-Jun-24 17:53N 53°17' W 002°52'0 0.0
2018-Jun-24 17:20N 53°17' W 002°52'0 0.0
2018-Jun-24 16:56N 53°17' W 002°52'0 0.0
2018-Jun-24 16:26N 53°17' W 002°52'0 0.0
2018-Jun-24 15:50N 53°17' W 002°52'0 0.0
2018-Jun-24 15:26N 53°17' W 002°52'0 0.0
2018-Jun-24 14:59N 53°17' W 002°52'0 0.0
2018-Jun-24 14:26N 53°17' W 002°52'0 0.0
2018-Jun-24 13:59N 53°17' W 002°52'0 0.0
2018-Jun-24 13:29N 53°17' W 002°52'0 0.0
2018-Jun-24 12:59N 53°17' W 002°52'0 0.0
2018-Jun-24 12:26N 53°17' W 002°52'0 0.0
2018-Jun-24 12:00N 53°17' W 002°52'0 0.3
2018-Jun-24 11:30N 53°17' W 002°52'1 1.1
2018-Jun-24 11:00N 53°17' W 002°51'0 0.0
2018-Jun-24 10:30N 53°17' W 002°51'0 0.0
2018-Jun-24 07:28N 53°17' W 002°51'0 0.0
2018-Jun-24 06:58N 53°17' W 002°51'0 0.0
2018-Jun-24 06:28N 53°17' W 002°51'0 0.0
2018-Jun-24 05:40N 53°17' W 002°51'0 0.0
2018-Jun-24 05:28N 53°17' W 002°51'0 0.0
2018-Jun-24 04:58N 53°17' W 002°51'0 0.0
2018-Jun-24 04:25N 53°17' W 002°51'0 0.0
2018-Jun-24 03:58N 53°17' W 002°51'0 0.0
2018-Jun-24 03:28N 53°17' W 002°51'0 0.0
2018-Jun-24 02:58N 53°17' W 002°51'0 0.0
2018-Jun-24 02:28N 53°17' W 002°51'0 0.0
2018-Jun-24 01:58N 53°17' W 002°51'0 0.0
2018-Jun-24 01:28N 53°17' W 002°51'0 0.0
2018-Jun-24 00:52N 53°17' W 002°51'0 0.0
2018-Jun-24 00:22N 53°17' W 002°51'0 0.0
2018-Jun-23 23:52N 53°17' W 002°51'0 0.0
2018-Jun-23 23:28N 53°17' W 002°51'0 0.0
2018-Jun-23 22:46N 53°17' W 002°51'0 0.0
2018-Jun-23 22:28N 53°17' W 002°51'0 0.0
2018-Jun-23 21:58N 53°17' W 002°51'0 0.0
2018-Jun-23 21:29N 53°17' W 002°51'0 0.0
2018-Jun-23 21:00N 53°17' W 002°51'2 4.1
2018-Jun-23 20:30N 53°18' W 002°54'2 4.9
2018-Jun-23 20:01N 53°19' W 002°57'1 2.3
2018-Jun-23 19:30N 53°20' W 002°58'2 3.3
2018-Jun-23 19:00N 53°22' W 002°58'1 2.7
2018-Jun-23 18:30N 53°23' W 002°60'2 3.0
2018-Jun-23 18:00N 53°24' W 003°01'0 0.0
2018-Jun-23 17:30N 53°24' W 003°01'0 0.0
2018-Jun-23 17:00N 53°24' W 003°01'0 0.6
2018-Jun-23 16:30N 53°24' W 003°02'1 1.7
2018-Jun-23 16:00N 53°24' W 003°03'0 0.0
2018-Jun-23 15:30N 53°24' W 003°03'0 0.0
2018-Jun-23 14:59N 53°24' W 003°03'0 0.0
2018-Jun-23 14:29N 53°24' W 003°03'0 0.0
2018-Jun-23 13:59N 53°24' W 003°03'0 0.0
2018-Jun-23 13:29N 53°24' W 003°03'0 0.0
2018-Jun-23 12:59N 53°24' W 003°03'0 0.0
2018-Jun-23 12:29N 53°24' W 003°03'0 0.0
2018-Jun-23 11:59N 53°24' W 003°03'0 0.0
2018-Jun-23 11:29N 53°24' W 003°03'0 0.0
2018-Jun-23 10:56N 53°24' W 003°03'0 0.0
2018-Jun-23 10:29N 53°24' W 003°03'0 0.0
2018-Jun-23 09:59N 53°24' W 003°03'0 0.0
2018-Jun-23 09:29N 53°24' W 003°03'1 1.0
2018-Jun-23 09:00N 53°24' W 003°02'1 1.4
2018-Jun-23 08:30N 53°24' W 003°01'0 0.0
2018-Jun-23 08:00N 53°24' W 003°01'0 0.0
2018-Jun-23 07:30N 53°24' W 003°01'0 0.0
2018-Jun-23 07:00N 53°24' W 003°01'0 0.8
2018-Jun-23 06:30N 53°24' W 003°01'4 8.3
2018-Jun-23 06:00N 53°20' W 002°58'1 1.5
2018-Jun-23 05:10N 53°19' W 002°57'0 0.1
2018-Jun-23 04:43N 53°19' W 002°57'0 0.0
2018-Jun-23 04:07N 53°19' W 002°57'0 0.0
2018-Jun-23 03:49N 53°19' W 002°57'0 0.0
2018-Jun-23 03:19N 53°19' W 002°57'0 0.0
2018-Jun-23 02:13N 53°19' W 002°57'0 0.0
2018-Jun-23 02:01N 53°19' W 002°57'0 0.0
2018-Jun-22 23:52N 53°19' W 002°57'0 0.0
2018-Jun-22 22:43N 53°19' W 002°57'0 0.0
2018-Jun-22 22:13N 53°19' W 002°57'0 0.0
2018-Jun-22 22:01N 53°19' W 002°57'0 0.0
2018-Jun-22 21:31N 53°19' W 002°57'0 0.0
2018-Jun-22 20:55N 53°19' W 002°57'0 0.0
2018-Jun-22 20:07N 53°19' W 002°57'0 0.0
2018-Jun-22 19:54N 53°19' W 002°57'0 0.0
2018-Jun-22 18:12N 53°19' W 002°57'0 0.0
2018-Jun-22 17:43N 53°19' W 002°57'0 0.0
2018-Jun-22 17:30N 53°19' W 002°57'0 0.0
2018-Jun-22 16:52N 53°19' W 002°57'0 0.0
2018-Jun-22 15:31N 53°19' W 002°57'0 0.0
2018-Jun-22 11:54N 53°19' W 002°57'0 0.0
2018-Jun-22 10:54N 53°19' W 002°57'0 0.0
2018-Jun-22 10:30N 53°19' W 002°57'0 0.0
2018-Jun-22 10:00N 53°19' W 002°57'0 0.0
2018-Jun-22 09:31N 53°19' W 002°57'0 0.0
2018-Jun-22 09:00N 53°19' W 002°57'0 0.0
2018-Jun-22 08:31N 53°19' W 002°57'0 0.0
2018-Jun-22 08:00N 53°19' W 002°57'0 0.0
2018-Jun-22 07:31N 53°19' W 002°57'0 0.4
2018-Jun-22 07:00N 53°19' W 002°57'0 0.3
2018-Jun-22 06:30N 53°20' W 002°57'3 5.9
2018-Jun-22 06:00N 53°22' W 002°59'511.0
2018-Jun-22 05:30N 53°27' W 003°03'611.8
2018-Jun-22 05:00N 53°32' W 003°09'510.1
2018-Jun-22 04:30N 53°31' W 003°17'4 7.7
2018-Jun-22 04:00N 53°31' W 003°24'4 7.6
2018-Jun-22 03:31N 53°31' W 003°30'4 6.9
2018-Jun-22 03:00N 53°31' W 003°36'5 9.6
2018-Jun-22 02:30N 53°31' W 003°44'205 6.8
2018-Jun-20 20:21N 50°06' W 003°41'1612.7
2018-Jun-20 19:04N 50°10' W 003°17'112.5
2018-Jun-20 19:00N 50°10' W 003°16'712.7
2018-Jun-20 18:29N 50°12' W 003°06'612.6
2018-Jun-20 17:58N 50°13' W 002°56'13011.0
2018-Jun-20 06:05N 50°35' E 000°25'312.1
2018-Jun-20 05:51N 50°36' E 000°30'410.9
2018-Jun-20 05:31N 50°38' E 000°34'611.2
2018-Jun-20 05:01N 50°42' E 000°41'510.8
2018-Jun-20 04:31N 50°45' E 000°48'3110.6
2018-Jun-20 01:37N 51°04' E 001°26'212.9
2018-Jun-20 01:30N 51°05' E 001°28'713.9
2018-Jun-20 01:00N 51°09' E 001°37'713.6
2018-Jun-20 00:29N 51°14' E 001°45'613.4
2018-Jun-20 00:00N 51°20' E 001°50'612.8
2018-Jun-19 23:30N 51°25' E 001°55'612.0
2018-Jun-19 22:58N 51°30' E 002°01'1011.5
2018-Jun-19 22:07N 51°37' E 002°12'111.1
2018-Jun-19 22:00N 51°38' E 002°14'53 9.8
2018-Jun-19 16:37N 52°03' E 003°29'311.4
2018-Jun-19 16:23N 52°03' E 003°33'511.7
2018-Jun-19 15:59N 52°04' E 003°41'612.1
2018-Jun-19 15:30N 52°03' E 003°50'511.0
2018-Jun-19 15:00N 52°02' E 003°59'612.6
2018-Jun-19 14:30N 51°58' E 004°07'612.5
2018-Jun-19 14:00N 51°55' E 004°15'3 5.2
2018-Jun-19 13:29N 51°53' E 004°19'0 0.0
2018-Jun-19 12:59N 51°53' E 004°19'0 0.0
2018-Jun-19 12:23N 51°53' E 004°19'0 0.0
2018-Jun-19 11:59N 51°53' E 004°19'0 0.0
2018-Jun-19 11:29N 51°53' E 004°19'0 0.0
2018-Jun-19 10:53N 51°53' E 004°19'0 0.0
2018-Jun-19 10:23N 51°53' E 004°19'0 0.0
2018-Jun-19 09:59N 51°53' E 004°19'0 0.0
2018-Jun-19 09:23N 51°53' E 004°19'0 0.0
2018-Jun-19 08:59N 51°53' E 004°19'0 0.0
2018-Jun-19 08:29N 51°53' E 004°19'0 0.0
2018-Jun-19 07:59N 51°53' E 004°19'0 0.0
2018-Jun-19 07:23N 51°53' E 004°19'0 0.0
2018-Jun-19 06:59N 51°53' E 004°19'0 0.0
2018-Jun-19 06:29N 51°53' E 004°19'0 0.0
2018-Jun-19 05:59N 51°53' E 004°19'0 0.0
2018-Jun-19 05:29N 51°53' E 004°19'0 0.0
2018-Jun-19 04:59N 51°53' E 004°19'0 0.0
2018-Jun-19 04:29N 51°53' E 004°19'0 0.0
2018-Jun-19 03:53N 51°53' E 004°19'0 0.0
2018-Jun-19 03:29N 51°53' E 004°19'0 0.0
2018-Jun-19 02:59N 51°53' E 004°19'0 0.0
2018-Jun-19 02:23N 51°53' E 004°19'0 0.0
2018-Jun-19 01:59N 51°53' E 004°19'0 0.0
2018-Jun-19 01:23N 51°53' E 004°19'0 0.0
2018-Jun-19 00:59N 51°53' E 004°19'0 0.0
2018-Jun-19 00:29N 51°53' E 004°19'0 0.0
2018-Jun-18 23:47N 51°53' E 004°19'0 0.0
2018-Jun-18 23:29N 51°53' E 004°19'0 0.0
2018-Jun-18 22:53N 51°53' E 004°19'0 0.0
2018-Jun-18 22:29N 51°53' E 004°19'0 0.0
2018-Jun-18 21:59N 51°53' E 004°19'0 0.0
2018-Jun-18 21:23N 51°53' E 004°19'0 0.0
2018-Jun-18 20:57N 51°53' E 004°19'0 0.0
2018-Jun-18 20:30N 51°53' E 004°19'0 0.0
2018-Jun-18 20:00N 51°53' E 004°19'1 1.2
2018-Jun-18 19:30N 51°53' E 004°18'0 0.7
2018-Jun-18 19:00N 51°53' E 004°18'0 0.0
2018-Jun-18 11:22N 51°53' E 004°18'0 0.0
2018-Jun-18 10:46N 51°53' E 004°18'0 0.0
2018-Jun-18 10:16N 51°53' E 004°18'0 0.0
2018-Jun-18 08:10N 51°53' E 004°18'0 0.0
2018-Jun-18 07:52N 51°53' E 004°18'0 0.0
2018-Jun-18 00:58N 51°53' E 004°18'0 0.0
2018-Jun-17 22:10N 51°53' E 004°18'0 0.0
2018-Jun-17 21:46N 51°53' E 004°18'0 0.0
2018-Jun-17 21:16N 51°53' E 004°18'0 0.0
2018-Jun-17 20:40N 51°53' E 004°18'0 0.0
2018-Jun-17 19:16N 51°53' E 004°18'0 0.0
2018-Jun-17 17:16N 51°53' E 004°18'0 0.0
2018-Jun-17 16:52N 51°53' E 004°18'0 0.0
2018-Jun-17 16:22N 51°53' E 004°18'0 0.0
2018-Jun-17 14:46N 51°53' E 004°18'0 0.0
2018-Jun-17 14:10N 51°53' E 004°18'0 0.0
2018-Jun-17 13:58N 51°53' E 004°18'0 0.0
2018-Jun-17 08:52N 51°53' E 004°18'  
2018-Jun-15 04:29N 51°53' E 004°18'1 1.4
2018-Jun-15 04:00N 51°54' E 004°18'  

Dump ship's entire track history